Time;durP1;ratioP1;P1;durP2;ratioP2;P2;SDS_P1;SDS_P2;PMS_P1;PMS_P2;Temp;Humidity;BMP_temperature;BMP_pressure;BME280_temperature;BME280_humidity;BME280_pressure;Samples;Min_cycle;Max_cycle;Signal;HPM_P1;HPM_P2
2022/09/17 00:00:17;;;;;;;0.28;0.00;;;;;;;12.68;53.99;99564.19;4923932;28;98630;-71
2022/09/17 00:02:46;;;;;;;0.43;0.10;;;;;;;12.68;53.96;99563.38;4925707;28;98403;-71
2022/09/17 00:05:13;;;;;;;0.25;0.05;;;;;;;12.67;53.95;99565.28;4886032;28;98173;-64
2022/09/17 00:07:39;;;;;;;1.65;0.10;;;;;;;12.69;54.22;99568.50;4909155;28;100088;-65
2022/09/17 00:10:05;;;;;;;1.33;0.10;;;;;;;12.70;54.14;99566.59;4915363;28;118386;-64
2022/09/17 00:12:32;;;;;;;0.30;0.00;;;;;;;12.68;54.16;99564.19;4924479;28;97872;-70
2022/09/17 00:14:59;;;;;;;2.05;0.10;;;;;;;12.68;54.41;99575.00;4923649;28;99594;-70
2022/09/17 00:17:26;;;;;;;1.13;0.20;;;;;;;12.69;54.12;99573.09;4915957;28;97947;-71
2022/09/17 00:19:52;;;;;;;0.30;0.00;;;;;;;12.68;54.14;99576.91;4920168;28;101761;-64
2022/09/17 00:22:19;;;;;;;0.40;0.10;;;;;;;12.67;54.50;99575.31;4912735;28;97868;-71
2022/09/17 00:24:45;;;;;;;0.65;0.10;;;;;;;12.64;54.34;99568.59;4921233;28;98202;-64
2022/09/17 00:27:12;;;;;;;0.57;0.10;;;;;;;12.65;54.51;99577.50;4962058;28;98040;-71
2022/09/17 00:29:40;;;;;;;0.65;0.10;;;;;;;12.62;54.54;99575.41;4945820;28;98156;-70
2022/09/17 00:32:06;;;;;;;1.02;0.10;;;;;;;12.61;54.25;99582.69;4928160;28;97810;-64
2022/09/17 00:34:32;;;;;;;0.40;0.10;;;;;;;12.60;54.78;99583.81;4927360;28;98510;-65
2022/09/17 00:36:58;;;;;;;1.42;0.10;;;;;;;12.60;54.86;99586.50;4939042;28;108267;-65
2022/09/17 00:39:24;;;;;;;1.20;0.10;;;;;;;12.58;54.82;99582.53;4930287;28;98586;-64
2022/09/17 00:41:52;;;;;;;1.20;0.10;;;;;;;12.57;55.04;99584.41;4927286;28;129479;-71
2022/09/17 00:44:41;;;;;;;3.20;0.10;;;;;;;12.55;54.76;99583.94;4940376;28;97889;-70
2022/09/17 00:47:19;;;;;;;0.10;0.00;;;;;;;12.57;55.02;99580.91;4959582;28;99062;-71
2022/09/17 00:49:45;;;;;;;0.50;0.10;;;;;;;12.60;55.32;99585.72;4938820;28;98650;-64
2022/09/17 00:52:22;;;;;;;0.85;0.10;;;;;;;12.59;55.05;99584.13;4928919;28;104027;-64
2022/09/17 00:55:11;;;;;;;0.80;0.10;;;;;;;12.60;54.91;99593.84;4906608;28;98088;-71
2022/09/17 00:57:39;;;;;;;0.55;0.10;;;;;;;12.60;55.28;99597.34;4947424;28;98611;-71
2022/09/17 01:00:07;;;;;;;1.70;0.10;;;;;;;12.60;55.21;99600.03;4925695;28;110071;-64
2022/09/17 01:02:34;;;;;;;1.27;0.10;;;;;;;12.59;54.98;99603.84;4962716;28;98271;-65
2022/09/17 01:05:00;;;;;;;0.32;0.00;;;;;;;12.57;55.12;99595.22;4926758;28;98029;-64
2022/09/17 01:07:41;;;;;;;1.33;0.10;;;;;;;12.58;55.05;99596.06;4929368;28;111058;-71
2022/09/17 01:10:46;;;;;;;0.63;0.00;;;;;;;12.56;55.13;99604.44;4931670;28;98003;-72
2022/09/17 01:13:24;;;;;;;0.20;0.00;;;;;;;12.54;55.29;99595.84;4945117;28;100624;-64
2022/09/17 01:16:14;;;;;;;4.03;0.10;;;;;;;12.54;55.23;99593.16;4944945;28;97951;-64
2022/09/17 01:19:30;;;;;;;0.75;0.10;;;;;;;12.51;55.13;99597.25;4944037;28;97952;-64
2022/09/17 01:22:13;;;;;;;0.30;0.08;;;;;;;12.51;55.39;99597.25;4977076;28;98060;-71
2022/09/17 01:24:59;;;;;;;0.40;0.10;;;;;;;12.51;55.36;99599.94;4915485;28;98602;-71
2022/09/17 01:28:09;;;;;;;1.45;0.10;;;;;;;12.51;55.39;99597.25;4977292;28;98351;-71
2022/09/17 01:31:11;;;;;;;1.02;0.10;;;;;;;12.50;55.47;99587.53;4951661;28;99949;-70
2022/09/17 01:33:51;;;;;;;0.70;0.10;;;;;;;12.52;55.33;99592.63;4937671;28;98079;-64
2022/09/17 01:36:45;;;;;;;1.55;0.13;;;;;;;12.51;55.32;99589.13;4933573;28;98014;-65
2022/09/17 01:39:39;;;;;;;2.15;0.10;;;;;;;12.51;55.64;99589.13;4958421;27;98033;-64
2022/09/17 01:42:34;;;;;;;1.85;0.10;;;;;;;12.52;55.30;99588.03;4937042;28;97985;-71
2022/09/17 01:45:47;;;;;;;0.85;0.10;;;;;;;12.50;55.45;99582.13;4934672;28;98298;-65
2022/09/17 01:48:18;;;;;;;0.82;0.10;;;;;;;12.52;55.71;99592.63;4919491;28;97855;-71
2022/09/17 01:51:06;;;;;;;0.20;0.00;;;;;;;12.51;55.68;99591.84;4911059;28;98221;-64
2022/09/17 01:54:04;;;;;;;0.30;0.10;;;;;;;12.50;55.51;99590.25;4928680;28;99705;-71
2022/09/17 01:56:37;;;;;;;1.58;0.10;;;;;;;12.51;55.62;99583.72;4922012;28;98965;-71
2022/09/17 01:59:19;;;;;;;;;;;;;;;12.47;55.29;99590.03;4925109;28;99060;-64
2022/09/17 02:01:47;;;;;;;1.83;0.05;;;;;;;12.48;55.65;99591.63;4925201;28;98296;-71
2022/09/17 02:04:43;;;;;;;1.45;0.10;;;;;;;12.48;55.81;99586.22;4938068;28;99705;-71
2022/09/17 02:07:19;;;;;;;0.30;0.03;;;;;;;12.48;55.55;99587.03;4941495;28;98717;-64
2022/09/17 02:10:01;;;;;;;1.48;0.00;;;;;;;12.48;55.49;99594.34;4949825;28;98038;-71
2022/09/17 02:12:35;;;;;;;0.52;0.10;;;;;;;12.47;55.82;99592.75;4962070;28;98670;-71
2022/09/17 02:15:06;;;;;;;0.75;0.10;;;;;;;12.47;55.99;99590.03;4918663;28;97940;-64
2022/09/17 02:17:44;;;;;;;1.65;0.00;;;;;;;12.47;55.65;99592.75;4921648;28;98294;-73
2022/09/17 02:20:10;;;;;;;0.20;0.00;;;;;;;12.48;56.37;99597.84;4916405;28;98173;-65
2022/09/17 02:22:42;;;;;;;1.30;0.00;;;;;;;12.52;55.87;99603.44;4940010;28;102169;-72
2022/09/17 02:25:27;;;;;;;3.03;0.10;;;;;;;12.58;55.88;99602.25;4980752;28;97778;-64
2022/09/17 02:28:40;;;;;;;1.83;0.10;;;;;;;12.62;55.68;99589.72;4930281;28;98034;-71
2022/09/17 02:31:08;;;;;;;0.90;0.10;;;;;;;12.71;55.98;99604.13;4945423;28;98595;-71
2022/09/17 02:33:34;;;;;;;1.05;0.10;;;;;;;12.76;55.94;99608.63;4944685;28;105761;-65
2022/09/17 02:36:01;;;;;;;0.90;0.00;;;;;;;12.80;56.09;99595.31;4931543;28;99079;-65
2022/09/17 02:38:30;;;;;;;0.60;0.00;;;;;;;12.84;55.89;99597.09;4915519;28;97955;-71
2022/09/17 02:41:25;;;;;;;1.23;0.10;;;;;;;12.88;55.66;99600.81;4954256;28;97840;-71
2022/09/17 02:43:57;;;;;;;0.30;0.00;;;;;;;12.93;55.59;99605.28;4960868;28;97953;-71
2022/09/17 02:47:06;;;;;;;0.77;0.20;;;;;;;12.94;55.67;99604.22;4944208;28;98179;-71
2022/09/17 02:50:02;;;;;;;1.98;0.20;;;;;;;12.92;55.79;99599.09;4936652;28;97944;-65
2022/09/17 02:52:57;;;;;;;1.55;0.20;;;;;;;12.96;55.60;99597.38;4950178;28;97764;-71
2022/09/17 02:56:12;;;;;;;0.70;0.08;;;;;;;12.97;55.92;99600.91;4957704;28;98208;-71
2022/09/17 02:58:59;;;;;;;1.92;0.10;;;;;;;12.95;55.80;99595.00;4942818;28;99005;-65
2022/09/17 03:01:34;;;;;;;1.15;0.10;;;;;;;12.94;56.24;99596.91;4960713;28;98048;-71
2022/09/17 03:04:03;;;;;;;2.08;0.10;;;;;;;12.93;56.19;99592.59;4921853;28;98151;-71
2022/09/17 03:06:30;;;;;;;0.60;0.08;;;;;;;12.96;56.43;99593.88;4908135;28;98257;-65
2022/09/17 03:08:58;;;;;;;0.90;0.10;;;;;;;12.95;56.17;99589.56;4929724;28;97989;-70
2022/09/17 03:11:24;;;;;;;0.60;0.00;;;;;;;12.94;56.19;99599.59;4900195;28;98073;-65
2022/09/17 03:13:50;;;;;;;0.50;0.10;;;;;;;12.95;56.10;99589.56;4943087;28;99158;-71
2022/09/17 03:16:17;;;;;;;4.65;0.10;;;;;;;12.94;56.37;99594.19;4907288;28;97981;-71
2022/09/17 03:18:43;;;;;;;1.60;0.10;;;;;;;12.98;56.09;99589.78;4931858;28;97870;-64
2022/09/17 03:21:11;;;;;;;1.65;0.10;;;;;;;12.95;56.10;99592.28;4903668;28;121251;-71
2022/09/17 03:23:38;;;;;;;1.05;0.10;;;;;;;12.97;56.35;99595.50;4914601;28;98118;-65
2022/09/17 03:26:05;;;;;;;0.70;0.00;;;;;;;12.97;56.42;99590.09;4903915;28;98134;-71
2022/09/17 03:28:31;;;;;;;2.55;0.08;;;;;;;12.97;56.36;99604.41;4906705;28;99218;-70
2022/09/17 03:30:57;;;;;;;0.70;0.00;;;;;;;12.97;56.54;99611.72;4909230;28;107629;-65
2022/09/17 03:33:23;;;;;;;0.57;0.08;;;;;;;12.98;56.40;99610.63;4908641;28;97966;-65
2022/09/17 03:35:49;;;;;;;0.03;0.00;;;;;;;12.96;56.32;99618.22;4939345;28;98049;-65
2022/09/17 03:38:17;;;;;;;1.08;0.10;;;;;;;12.97;56.80;99617.13;4924209;28;126467;-71
2022/09/17 03:40:43;;;;;;;2.13;0.13;;;;;;;12.94;56.49;99626.66;4938946;28;97996;-71
2022/09/17 03:43:10;;;;;;;0.60;0.10;;;;;;;12.93;56.53;99625.06;4920755;28;98069;-65
2022/09/17 03:45:36;;;;;;;2.17;0.10;;;;;;;12.92;56.80;99623.44;4909488;28;97992;-71
2022/09/17 03:48:02;;;;;;;0.65;0.10;;;;;;;12.91;56.76;99621.84;4920103;28;127791;-71
2022/09/17 03:50:28;;;;;;;1.10;0.00;;;;;;;12.87;57.04;99623.53;4941647;28;97833;-71
2022/09/17 03:52:54;;;;;;;1.88;0.10;;;;;;;12.87;56.80;99626.25;4920420;28;127684;-71
2022/09/17 03:55:20;;;;;;;0.40;0.00;;;;;;;12.87;56.92;99630.88;4890860;28;128525;-65
2022/09/17 03:57:48;;;;;;;0.50;0.10;;;;;;;12.84;56.98;99631.47;4922458;28;98226;-65
2022/09/17 04:00:16;;;;;;;4.38;0.10;;;;;;;12.82;57.09;99630.97;4919579;28;110500;-65
2022/09/17 04:02:42;;;;;;;4.72;0.10;;;;;;;12.80;57.18;99627.75;4937651;28;98356;-65
2022/09/17 04:05:09;;;;;;;2.92;0.05;;;;;;;12.80;57.50;99633.97;4922663;28;97987;-63
2022/09/17 04:07:38;;;;;;;0.75;0.10;;;;;;;12.77;57.51;99635.38;4900605;28;98310;-71
2022/09/17 04:10:05;;;;;;;0.47;0.10;;;;;;;12.75;57.34;99632.16;4888146;28;97899;-64
2022/09/17 04:12:32;;;;;;;0.25;0.00;;;;;;;12.76;57.28;99627.56;4920409;28;99593;-65
2022/09/17 04:14:58;;;;;;;0.52;0.10;;;;;;;12.74;57.53;99625.16;4916002;28;97925;-65
2022/09/17 04:17:24;;;;;;;0.70;0.10;;;;;;;12.76;57.66;99635.69;4886475;28;109337;-71
2022/09/17 04:19:52;;;;;;;1.02;0.10;;;;;;;12.76;57.15;99628.34;4890380;28;99250;-70
2022/09/17 04:22:18;;;;;;;1.02;0.10;;;;;;;12.76;57.39;99628.34;4940647;28;98077;-64
2022/09/17 04:24:44;;;;;;;2.80;0.10;;;;;;;12.76;57.70;99624.84;4926941;28;100257;-71
2022/09/17 04:27:10;;;;;;;0.38;0.10;;;;;;;12.75;57.60;99634.06;4943855;28;116786;-71
2022/09/17 04:29:36;;;;;;;0.70;0.10;;;;;;;12.76;57.48;99635.69;4920925;28;98103;-64
2022/09/17 04:32:06;;;;;;;0.98;0.03;;;;;;;12.76;57.57;99636.47;4943309;28;127705;-70
2022/09/17 04:34:32;;;;;;;0.95;0.10;;;;;;;12.77;57.85;99634.56;4938403;28;97861;-64
2022/09/17 04:36:59;;;;;;;0.40;0.10;;;;;;;12.76;57.74;99633.78;4941524;28;98096;-70
2022/09/17 04:39:25;;;;;;;0.88;0.10;;;;;;;12.75;57.83;99640.28;4922127;28;98190;-64
2022/09/17 04:41:51;;;;;;;0.30;0.00;;;;;;;12.77;57.88;99638.09;4927068;28;97989;-64
2022/09/17 04:44:17;;;;;;;1.13;0.10;;;;;;;12.78;57.94;99641.59;4914405;28;107149;-64
2022/09/17 04:46:43;;;;;;;0.45;0.10;;;;;;;12.76;57.96;99636.47;4928640;28;97914;-64
2022/09/17 04:49:10;;;;;;;0.20;0.00;;;;;;;12.76;57.71;99641.09;4919870;28;117108;-64
2022/09/17 04:51:37;;;;;;;0.20;0.00;;;;;;;12.75;58.06;99629.47;4924461;28;98515;-71
2022/09/17 04:54:03;;;;;;;0.47;0.00;;;;;;;12.76;57.96;99641.88;4956015;28;98041;-64
2022/09/17 04:56:29;;;;;;;0.20;0.00;;;;;;;12.74;58.50;99635.97;4908845;28;121935;-64
2022/09/17 04:58:55;;;;;;;0.68;0.10;;;;;;;12.73;57.96;99644.38;4939884;28;97907;-64
2022/09/17 05:01:23;;;;;;;0.57;0.10;;;;;;;12.74;57.96;99646.81;4924565;28;119421;-70
2022/09/17 05:03:49;;;;;;;0.40;0.00;;;;;;;12.71;58.27;99647.41;4929606;27;97920;-70
2022/09/17 05:06:15;;;;;;;1.00;0.10;;;;;;;12.70;57.97;99650.41;4926972;28;98134;-64
2022/09/17 05:08:41;;;;;;;0.30;0.00;;;;;;;12.70;58.25;99651.22;4924018;28;103327;-64
2022/09/17 05:11:07;;;;;;;0.35;0.10;;;;;;;12.66;58.45;99650.22;4956240;28;128791;-64
2022/09/17 05:13:33;;;;;;;0.47;0.10;;;;;;;12.62;58.38;99649.22;4924447;28;128635;-64
2022/09/17 05:16:01;;;;;;;0.50;0.10;;;;;;;12.61;58.69;99661.09;4937598;28;120030;-70
2022/09/17 05:18:28;;;;;;;0.82;0.10;;;;;;;12.57;58.49;99657.41;4925980;28;97775;-71
2022/09/17 05:20:55;;;;;;;0.30;0.10;;;;;;;12.58;58.72;99658.22;4938480;28;97918;-71
2022/09/17 05:23:23;;;;;;;0.45;0.10;;;;;;;12.56;58.89;99668.53;4913749;28;101356;-72
2022/09/17 05:25:51;;;;;;;0.77;0.10;;;;;;;12.52;59.10;99660.22;4959448;28;98116;-71
2022/09/17 05:28:18;;;;;;;0.73;0.10;;;;;;;12.48;59.12;99662.72;4944381;28;97800;-71
2022/09/17 05:30:46;;;;;;;0.30;0.10;;;;;;;12.47;59.45;99663.03;4946023;28;98127;-71
2022/09/17 05:33:12;;;;;;;0.13;0.00;;;;;;;12.45;59.47;99659.78;4960293;28;98240;-65
2022/09/17 05:35:39;;;;;;;1.45;0.10;;;;;;;12.43;59.62;99665.50;4925408;28;98231;-65
2022/09/17 05:38:08;;;;;;;0.38;0.10;;;;;;;12.39;60.13;99663.72;4940601;28;98331;-65
2022/09/17 05:40:37;;;;;;;0.98;0.10;;;;;;;12.36;59.88;99675.91;4927634;28;99527;-65
2022/09/17 05:43:06;;;;;;;0.20;0.00;;;;;;;12.33;59.83;99671.09;4943461;28;97862;-65
2022/09/17 05:45:33;;;;;;;0.47;0.10;;;;;;;12.35;60.28;99668.91;4898262;28;111128;-64
2022/09/17 05:48:01;;;;;;;0.85;0.10;;;;;;;12.38;60.13;99671.03;4926515;28;98173;-65
2022/09/17 05:50:28;;;;;;;0.55;0.08;;;;;;;12.39;60.60;99667.22;4928698;28;108221;-64
2022/09/17 05:52:54;;;;;;;2.38;0.20;;;;;;;12.40;60.73;99671.50;4940050;28;98507;-65
2022/09/17 05:55:22;;;;;;;0.52;0.10;;;;;;;12.46;60.52;99672.22;4924668;28;98492;-65
2022/09/17 05:57:50;;;;;;;0.20;0.00;;;;;;;12.50;60.39;99670.53;4938717;28;98063;-65
2022/09/17 06:00:17;;;;;;;1.20;0.10;;;;;;;12.59;60.41;99670.63;4925159;28;100179;-64
2022/09/17 06:02:44;;;;;;;0.55;0.10;;;;;;;12.62;60.53;99664.63;4942703;28;99026;-64
2022/09/17 06:05:10;;;;;;;1.90;0.15;;;;;;;12.65;60.93;99664.81;4918811;28;97901;-65
2022/09/17 06:07:36;;;;;;;1.48;0.10;;;;;;;12.71;60.97;99663.63;4958497;28;97864;-65
2022/09/17 06:10:04;;;;;;;1.13;0.13;;;;;;;12.76;60.59;99665.41;4922411;28;115056;-65
2022/09/17 06:12:31;;;;;;;1.25;0.10;;;;;;;12.73;60.63;99661.44;4927453;28;121044;-65
2022/09/17 06:14:57;;;;;;;0.57;0.10;;;;;;;12.71;60.77;99660.13;4941616;28;98286;-65
2022/09/17 06:17:24;;;;;;;0.75;0.10;;;;;;;12.83;60.83;99662.31;4943475;28;97877;-65
2022/09/17 06:19:50;;;;;;;1.20;0.20;;;;;;;12.94;60.62;99664.53;4958098;28;98572;-65
2022/09/17 06:22:19;;;;;;;0.43;0.10;;;;;;;12.96;60.54;99664.22;4909750;28;98059;-65
2022/09/17 06:24:46;;;;;;;0.90;0.10;;;;;;;12.99;60.89;99667.09;4928251;28;98062;-65
2022/09/17 06:27:12;;;;;;;0.43;0.10;;;;;;;12.97;60.69;99663.91;4925058;28;98146;-65
2022/09/17 06:29:39;;;;;;;0.35;0.10;;;;;;;12.95;61.13;99668.81;4944599;28;125279;-65
2022/09/17 06:32:09;;;;;;;0.60;0.10;;;;;;;13.06;60.71;99674.03;4938164;28;98093;-65
2022/09/17 06:34:36;;;;;;;0.65;0.10;;;;;;;13.17;60.57;99673.50;4946475;28;98346;-66
2022/09/17 06:37:02;;;;;;;2.20;0.10;;;;;;;13.15;60.74;99664.88;4942310;28;98348;-65
2022/09/17 06:39:29;;;;;;;0.30;0.03;;;;;;;13.10;60.78;99661.50;4942201;28;99966;-65
2022/09/17 06:41:55;;;;;;;0.50;0.10;;;;;;;13.03;61.35;99665.41;4922599;28;98253;-72
2022/09/17 06:44:23;;;;;;;1.35;0.10;;;;;;;12.99;61.09;99661.69;4943655;28;98155;-72
2022/09/17 06:46:50;;;;;;;0.98;0.10;;;;;;;13.08;61.24;99663.69;4912531;28;98884;-65
2022/09/17 06:49:17;;;;;;;0.65;0.25;;;;;;;13.07;61.08;99659.38;4926932;28;98015;-65
2022/09/17 06:51:44;;;;;;;1.15;0.20;;;;;;;13.03;61.40;99659.19;4944348;28;116736;-65
2022/09/17 06:54:11;;;;;;;0.28;0.10;;;;;;;12.99;61.61;99661.69;4908716;28;109717;-65
2022/09/17 06:56:38;;;;;;;0.47;0.10;;;;;;;12.99;61.56;99664.41;4907313;28;97999;-65
2022/09/17 06:59:04;;;;;;;0.30;0.10;;;;;;;12.97;61.77;99658.50;4927544;28;100382;-65
2022/09/17 07:01:31;;;;;;;0.47;0.10;;;;;;;12.99;61.75;99659.00;4941493;28;98947;-65
2022/09/17 07:03:57;;;;;;;0.60;0.10;;;;;;;13.02;61.74;99663.00;4925658;28;98500;-65
2022/09/17 07:06:24;;;;;;;1.48;0.10;;;;;;;13.08;61.58;99659.06;4923028;28;118805;-65
2022/09/17 07:08:50;;;;;;;0.45;0.10;;;;;;;13.05;61.83;99658.88;4927894;28;99621;-65
2022/09/17 07:11:16;;;;;;;1.48;0.20;;;;;;;13.14;61.33;99665.19;4926779;28;99403;-65
2022/09/17 07:13:42;;;;;;;0.75;0.20;;;;;;;13.18;61.88;99664.28;4941779;28;97923;-65
2022/09/17 07:16:09;;;;;;;1.17;0.30;;;;;;;13.27;61.97;99664.38;4942856;28;98066;-65
2022/09/17 07:18:35;;;;;;;1.23;0.25;;;;;;;13.36;61.99;99667.16;4906137;28;112358;-65
2022/09/17 07:21:04;;;;;;;2.97;0.40;;;;;;;13.51;61.30;99664.13;4907614;28;97887;-65
2022/09/17 07:23:33;;;;;;;0.85;0.30;;;;;;;13.58;61.27;99669.13;4944246;28;98321;-72
2022/09/17 07:26:04;;;;;;;1.40;0.40;;;;;;;13.74;61.42;99667.66;4909582;27;98265;-72
2022/09/17 07:28:30;;;;;;;4.40;1.60;;;;;;;13.89;61.29;99667.28;4943719;28;97827;-65
2022/09/17 07:30:57;;;;;;;3.72;0.70;;;;;;;14.00;60.83;99671.34;4922069;28;98289;-72
2022/09/17 07:33:25;;;;;;;21.42;8.13;;;;;;;14.18;60.91;99668.72;4923419;27;98852;-65
2022/09/17 07:35:56;;;;;;;1.67;0.73;;;;;;;14.14;60.90;99665.84;4926833;27;98334;-65
2022/09/17 07:38:22;;;;;;;1.77;0.30;;;;;;;14.06;61.45;99668.50;4922569;28;101761;-71
2022/09/17 07:41:01;;;;;;;3.53;0.50;;;;;;;14.08;61.01;99671.72;4901369;28;101032;-71
2022/09/17 07:43:30;;;;;;;3.22;0.80;;;;;;;14.15;61.44;99672.09;4910193;27;98000;-71
2022/09/17 07:45:59;;;;;;;4.18;1.52;;;;;;;14.18;61.09;99674.16;4899015;28;98544;-71
2022/09/17 07:48:27;;;;;;;3.40;0.90;;;;;;;14.24;61.08;99670.22;4921867;28;98309;-71
2022/09/17 07:50:53;;;;;;;3.38;1.58;;;;;;;14.23;61.23;99676.75;4920529;28;98745;-65
2022/09/17 07:53:19;;;;;;;5.22;2.38;;;;;;;14.30;61.33;99673.59;4900298;27;99081;-65
2022/09/17 07:55:56;;;;;;;5.85;1.80;;;;;;;14.46;60.80;99682.91;4933751;28;98391;-65
2022/09/17 07:58:26;;;;;;;3.78;1.40;;;;;;;14.48;61.13;99683.41;4899169;28;98159;-65
2022/09/17 08:00:58;;;;;;;2.10;0.65;;;;;;;14.43;61.05;99699.81;4939606;28;101507;-65
2022/09/17 08:03:24;;;;;;;2.65;0.93;;;;;;;14.41;60.99;99699.31;4913793;27;98008;-65
2022/09/17 08:05:50;;;;;;;6.55;4.45;;;;;;;14.44;60.96;99701.41;4937740;28;117309;-65
2022/09/17 08:08:18;;;;;;;2.92;0.90;;;;;;;14.73;60.44;99700.94;4897705;28;126259;-71
2022/09/17 08:10:44;;;;;;;2.97;0.47;;;;;;;14.98;59.77;99707.59;4906206;28;98159;-65
2022/09/17 08:13:11;;;;;;;1.20;0.40;;;;;;;15.27;59.45;99708.94;4920921;27;121653;-71
2022/09/17 08:15:37;;;;;;;1.52;0.43;;;;;;;15.23;59.70;99703.31;4918894;28;98029;-71
2022/09/17 08:18:04;;;;;;;2.00;0.38;;;;;;;15.23;59.80;99700.63;4934576;28;108111;-71
2022/09/17 08:20:30;;;;;;;2.70;0.57;;;;;;;15.07;59.70;99710.31;4921485;28;98123;-65
2022/09/17 08:23:00;;;;;;;1.33;0.50;;;;;;;14.84;60.37;99713.09;4920172;28;127675;-65
2022/09/17 08:25:26;;;;;;;2.35;0.20;;;;;;;14.71;60.80;99712.09;4940040;28;98190;-71
2022/09/17 08:27:56;;;;;;;3.03;1.00;;;;;;;14.82;60.51;99722.69;4910037;28;98037;-65
2022/09/17 08:30:23;;;;;;;1.55;0.38;;;;;;;14.86;60.35;99718.25;4926123;28;98262;-70
2022/09/17 08:32:49;;;;;;;12.68;3.17;;;;;;;14.85;60.29;99720.13;4906053;28;98627;-65
2022/09/17 08:35:16;;;;;;;6.18;2.97;;;;;;;15.11;59.73;99727.56;4927271;28;98983;-65
2022/09/17 08:37:42;;;;;;;49.15;19.17;;;;;;;15.35;59.58;99729.88;4923717;28;98308;-71
2022/09/17 08:40:21;;;;;;;9.27;4.32;;;;;;;15.44;59.34;99731.50;4918395;28;100141;-65
2022/09/17 08:42:59;;;;;;;5.57;0.90;;;;;;;15.47;59.61;99733.56;4944152;28;98192;-71
2022/09/17 08:45:25;;;;;;;3.88;1.75;;;;;;;15.74;58.96;99739.84;4930142;28;98208;-64
2022/09/17 08:47:53;;;;;;;6.50;2.22;;;;;;;15.90;58.79;99735.53;4942757;28;98317;-70
2022/09/17 08:50:33;;;;;;;1.70;0.55;;;;;;;15.90;58.99;99732.81;4929865;28;98499;-71
2022/09/17 08:53:29;;;;;;;2.80;0.20;;;;;;;15.83;59.01;99737.13;4921301;28;99437;-71
2022/09/17 08:56:12;;;;;;;2.42;0.40;;;;;;;16.01;58.75;99744.16;4937073;28;105340;-65
2022/09/17 08:58:56;;;;;;;2.90;0.30;;;;;;;16.19;58.41;99744.94;4925703;27;98294;-71
2022/09/17 09:01:32;;;;;;;2.53;0.20;;;;;;;16.62;57.37;99744.03;4956783;28;98184;-72
2022/09/17 09:04:28;;;;;;;1.02;0.20;;;;;;;17.00;56.87;99735.94;4924298;27;99296;-66
2022/09/17 09:07:26;;;;;;;2.15;0.28;;;;;;;16.89;57.14;99740.94;4957585;27;98763;-66
2022/09/17 09:10:22;;;;;;;1.10;0.35;;;;;;;16.98;57.03;99740.94;4941249;28;98353;-72
2022/09/17 09:12:48;;;;;;;0.90;0.30;;;;;;;17.09;56.48;99747.56;4926723;28;98446;-65
2022/09/17 09:15:55;;;;;;;5.63;2.67;;;;;;;19.41;52.82;99743.34;4919380;28;98195;-66
2022/09/17 09:18:28;;;;;;;0.93;0.30;;;;;;;19.38;53.23;99742.91;4959194;28;98271;-72
2022/09/17 09:21:13;;;;;;;1.90;0.32;;;;;;;19.94;52.81;99746.91;4915791;28;98341;-73
2022/09/17 09:24:07;;;;;;;0.98;0.20;;;;;;;20.05;52.28;99746.06;4905681;28;98116;-66
2022/09/17 09:26:45;;;;;;;1.63;0.20;;;;;;;20.00;53.28;99751.78;4927517;28;98362;-66
2022/09/17 09:29:18;;;;;;;1.35;0.10;;;;;;;19.35;53.81;99753.72;4917462;28;99317;-72
2022/09/17 09:32:02;;;;;;;2.60;0.20;;;;;;;19.01;54.17;99752.22;4951305;28;98416;-66
2022/09/17 09:34:29;;;;;;;5.60;0.45;;;;;;;19.06;53.59;99752.00;4934759;28;98085;-66
2022/09/17 09:37:26;;;;;;;4.07;0.80;;;;;;;18.77;54.51;99744.81;4916971;28;98375;-66
2022/09/17 09:39:54;;;;;;;2.88;0.20;;;;;;;19.91;51.49;99747.59;4935317;28;98013;-66
2022/09/17 09:42:34;;;;;;;0.98;0.10;;;;;;;20.32;51.31;99749.94;4950135;28;98160;-67
2022/09/17 09:45:11;;;;;;;4.47;0.28;;;;;;;20.00;51.37;99749.06;4951128;28;98417;-67
2022/09/17 09:47:46;;;;;;;2.70;0.10;;;;;;;19.46;52.59;99748.59;4909440;28;98130;-66
2022/09/17 09:50:36;;;;;;;1.05;0.10;;;;;;;19.27;52.76;99757.34;4956202;28;97920;-66
2022/09/17 09:53:24;;;;;;;0.82;0.10;;;;;;;19.49;52.07;99756.91;4906219;28;98406;-66
2022/09/17 09:56:34;;;;;;;1.48;0.20;;;;;;;19.81;51.44;99766.09;4917566;28;98390;-66
2022/09/17 09:59:00;;;;;;;1.52;0.10;;;;;;;20.84;48.86;99759.13;4948529;28;98184;-66
2022/09/17 10:01:27;;;;;;;2.15;0.20;;;;;;;21.57;48.08;99752.25;4918841;28;98182;-67
2022/09/17 10:03:57;;;;;;;0.65;0.10;;;;;;;24.48;43.57;99754.72;4880361;28;98417;-66
2022/09/17 10:06:23;;;;;;;1.35;0.10;;;;;;;24.35;44.50;99771.81;4913282;28;98050;-67
2022/09/17 10:08:55;;;;;;;1.08;0.15;;;;;;;23.68;46.64;99765.13;4919586;28;125232;-74
2022/09/17 10:11:33;;;;;;;1.20;0.10;;;;;;;24.19;45.57;99759.06;4936186;28;98294;-73
2022/09/17 10:14:23;;;;;;;0.68;0.10;;;;;;;23.43;46.53;99767.50;4923780;28;98884;-74
2022/09/17 10:17:15;;;;;;;0.55;0.05;;;;;;;23.01;46.78;99773.13;4939116;28;98304;-73
2022/09/17 10:19:45;;;;;;;1.55;0.17;;;;;;;24.35;44.07;99758.84;4934357;28;98186;-74
2022/09/17 10:22:23;;;;;;;0.35;0.10;;;;;;;24.49;44.54;99763.75;4944882;27;98006;-73
2022/09/17 10:24:53;;;;;;;0.90;0.10;;;;;;;24.83;43.62;99767.22;4958943;28;98119;-74
2022/09/17 10:27:21;;;;;;;0.68;0.10;;;;;;;23.88;44.92;99773.22;4963372;28;98177;-73
2022/09/17 10:30:03;;;;;;;0.25;0.00;;;;;;;22.99;45.46;99778.16;4904611;28;98456;-67
2022/09/17 10:32:30;;;;;;;1.58;0.10;;;;;;;22.54;46.21;99766.78;4926980;28;97964;-74
2022/09/17 10:35:03;;;;;;;0.50;0.10;;;;;;;22.50;46.35;99765.13;4919659;28;98478;-67
2022/09/17 10:37:45;;;;;;;0.80;0.10;;;;;;;22.71;46.02;99761.97;4918322;28;98163;-67
2022/09/17 10:40:17;;;;;;;0.38;0.10;;;;;;;22.24;46.44;99768.53;4937134;28;99403;-73
2022/09/17 10:43:15;;;;;;;1.15;0.17;;;;;;;22.08;46.26;99759.56;4954264;28;98003;-73
2022/09/17 10:45:45;;;;;;;1.95;0.20;;;;;;;21.73;46.12;99758.50;4936258;28;98036;-73
2022/09/17 10:48:17;;;;;;;1.38;0.20;;;;;;;21.28;47.42;99751.56;4918432;28;98147;-67
2022/09/17 10:50:55;;;;;;;0.40;0.10;;;;;;;20.81;48.16;99754.34;4921851;27;98220;-66
2022/09/17 10:53:22;;;;;;;4.32;0.50;;;;;;;20.54;47.77;99756.78;4940058;27;98055;-72
2022/09/17 10:56:09;;;;;;;2.65;0.68;;;;;;;20.63;47.42;99751.13;4921982;28;98251;-72
2022/09/17 10:58:51;;;;;;;2.20;0.30;;;;;;;22.53;44.22;99742.44;4941092;28;98170;-66
2022/09/17 11:01:52;;;;;;;;;;;;;;;24.16;43.47;99739.75;4940875;28;98123;-66
2022/09/17 11:04:48;;;;;;;2.20;0.30;;;;;;;26.61;40.25;99747.34;4941082;28;98042;-73
2022/09/17 11:07:54;;;;;;;0.70;0.20;;;;;;;29.35;37.29;99761.28;4935637;28;98063;-72
2022/09/17 11:10:35;;;;;;;0.50;0.10;;;;;;;27.46;39.74;99756.78;4881147;28;98049;-72
2022/09/17 11:13:27;;;;;;;0.98;0.10;;;;;;;25.36;42.68;99766.09;4898529;28;99457;-73
2022/09/17 11:16:10;;;;;;;0.65;0.10;;;;;;;24.02;44.67;99767.13;4928877;28;98358;-67
2022/09/17 11:18:41;;;;;;;1.30;0.00;;;;;;;23.33;45.17;99778.31;4925291;28;98335;-67
2022/09/17 11:21:35;;;;;;;3.30;0.43;;;;;;;22.94;45.52;99767.50;4905732;28;100535;-67
2022/09/17 11:24:14;;;;;;;0.20;0.10;;;;;;;22.62;45.55;99762.22;4923385;28;98004;-66
2022/09/17 11:27:21;;;;;;;1.10;0.00;;;;;;;21.86;46.67;99772.06;4956221;28;97905;-73
2022/09/17 11:30:18;;;;;;;0.50;0.10;;;;;;;22.45;45.02;99762.69;4947317;28;98183;-73
2022/09/17 11:33:10;;;;;;;0.30;0.08;;;;;;;26.14;40.26;99757.44;4960076;28;98572;-73
2022/09/17 11:35:44;;;;;;;1.80;0.10;;;;;;;27.39;38.71;99752.88;4938806;28;97850;-66
2022/09/17 11:38:29;;;;;;;1.13;0.10;;;;;;;29.03;37.38;99748.50;4910503;28;98064;-73
2022/09/17 11:41:18;;;;;;;0.70;0.00;;;;;;;27.19;39.90;99742.59;4938087;28;98492;-66
2022/09/17 11:44:02;;;;;;;1.88;0.00;;;;;;;26.30;40.58;99735.00;4938612;28;98651;-67
2022/09/17 11:46:48;;;;;;;0.73;0.10;;;;;;;28.78;37.34;99734.81;4893713;28;107551;-74
2022/09/17 11:49:39;;;;;;;0.43;0.00;;;;;;;29.65;36.48;99743.16;4907861;28;98448;-73
2022/09/17 11:52:31;;;;;;;1.00;0.10;;;;;;;26.94;40.32;99743.38;4920100;28;98139;-68
2022/09/17 11:55:21;;;;;;;0.85;0.20;;;;;;;25.83;41.48;99721.06;4912231;28;99063;-73
2022/09/17 11:57:50;;;;;;;0.43;0.10;;;;;;;25.34;40.82;99718.78;4935857;28;98042;-73
2022/09/17 12:00:19;;;;;;;0.90;0.15;;;;;;;25.93;39.54;99728.56;4920579;28;98390;-67
2022/09/17 12:03:06;;;;;;;0.90;0.20;;;;;;;24.86;41.58;99727.88;4904607;28;98370;-67